createdAt,value
2023-02-02T00:01:01.314Z,22.08
2023-02-02T00:03:27.873Z,33.35
2023-02-02T00:05:54.830Z,22.60
2023-02-02T00:08:22.214Z,22.33
2023-02-02T00:10:50.568Z,21.80
2023-02-02T00:13:17.652Z,22.48
2023-02-02T00:15:44.408Z,21.23
2023-02-02T00:18:11.027Z,21.80
2023-02-02T00:20:37.838Z,20.95
2023-02-02T00:23:04.483Z,20.23
2023-02-02T00:25:33.288Z,19.58
2023-02-02T00:27:59.923Z,18.45
2023-02-02T00:30:26.585Z,18.30
2023-02-02T00:32:53.332Z,18.40
2023-02-02T00:35:20.955Z,17.92
2023-02-02T00:37:47.559Z,18.20
2023-02-02T00:40:14.454Z,19.33
2023-02-02T00:42:41.071Z,19.88
2023-02-02T00:45:17.302Z,19.88
2023-02-02T00:47:49.195Z,19.73
2023-02-02T00:50:19.835Z,20.13
2023-02-02T00:52:48.171Z,19.98
2023-02-02T00:55:15.727Z,18.70
2023-02-02T00:57:44.373Z,18.75
2023-02-02T01:00:16.799Z,37.10
2023-02-02T01:02:43.818Z,18.25
2023-02-02T01:05:13.784Z,18.90
2023-02-02T01:07:40.720Z,18.33
2023-02-02T01:10:10.871Z,22.48
2023-02-02T01:12:37.453Z,18.90
2023-02-02T01:15:04.566Z,19.40
2023-02-02T01:17:31.139Z,19.63
2023-02-02T01:19:57.706Z,21.45
2023-02-02T01:22:24.279Z,21.27
2023-02-02T01:24:50.958Z,23.33
2023-02-02T01:27:17.990Z,24.15
2023-02-02T01:29:44.977Z,25.83
2023-02-02T01:32:11.874Z,24.27
2023-02-02T01:34:41.880Z,26.85
2023-02-02T01:37:09.322Z,25.08
2023-02-02T01:39:36.455Z,25.20
2023-02-02T01:42:03.878Z,22.50
2023-02-02T01:45:01.000Z,20.67
2023-02-02T01:47:41.810Z,21.48
2023-02-02T01:50:11.591Z,20.58
2023-02-02T01:52:38.984Z,20.35
2023-02-02T01:55:12.781Z,20.58
2023-02-02T01:57:45.359Z,20.17
2023-02-02T02:00:15.209Z,19.42
2023-02-02T02:02:46.076Z,21.90
2023-02-02T02:05:18.708Z,20.02
2023-02-02T02:07:48.366Z,19.88
2023-02-02T02:10:17.463Z,19.08
2023-02-02T02:12:46.747Z,19.50
2023-02-02T02:15:31.908Z,19.73
2023-02-02T02:18:29.506Z,19.60
2023-02-02T02:21:48.905Z,19.33
2023-02-02T02:25:13.244Z,19.45
2023-02-02T02:28:04.255Z,19.42
2023-02-02T02:30:56.184Z,21.17
2023-02-02T02:33:45.775Z,22.88
2023-02-02T02:36:35.007Z,21.50
2023-02-02T02:39:18.676Z,24.50
2023-02-02T02:41:50.092Z,23.77
2023-02-02T02:44:19.491Z,23.08
2023-02-02T02:46:48.307Z,25.48
2023-02-02T02:49:15.145Z,27.65
2023-02-02T02:51:51.276Z,22.25
2023-02-02T02:54:22.049Z,23.70
2023-02-02T02:57:07.326Z,26.40
2023-02-02T02:59:57.192Z,25.25
2023-02-02T03:03:08.788Z,24.55
2023-02-02T03:06:05.006Z,28.63
2023-02-02T03:08:57.215Z,35.55
2023-02-02T03:11:23.984Z,28.08
2023-02-02T03:13:50.576Z,36.17
2023-02-02T03:16:17.853Z,27.00
2023-02-02T03:18:44.659Z,28.58
2023-02-02T03:21:11.595Z,23.02
2023-02-02T03:23:38.862Z,28.73
2023-02-02T03:26:06.286Z,25.88
2023-02-02T03:28:33.300Z,27.52
2023-02-02T03:31:01.859Z,22.42
2023-02-02T03:33:29.980Z,23.80
2023-02-02T03:35:56.557Z,22.63
2023-02-02T03:38:23.062Z,23.63
2023-02-02T03:40:51.061Z,23.45
2023-02-02T03:43:24.418Z,20.85
2023-02-02T03:45:57.905Z,21.27
2023-02-02T03:48:24.825Z,21.00
2023-02-02T03:50:51.408Z,20.67
2023-02-02T03:53:17.991Z,21.27
2023-02-02T03:55:44.539Z,23.23
2023-02-02T03:58:11.132Z,20.05
2023-02-02T04:00:37.872Z,21.58
2023-02-02T04:03:04.500Z,20.20
2023-02-02T04:05:31.085Z,23.65
2023-02-02T04:07:57.650Z,19.92
2023-02-02T04:10:24.305Z,24.13
2023-02-02T04:12:51.070Z,20.67
2023-02-02T04:15:17.716Z,20.17
2023-02-02T04:17:44.273Z,19.45
2023-02-02T04:20:11.594Z,19.40
2023-02-02T04:22:38.213Z,26.15
2023-02-02T04:25:05.059Z,19.80
2023-02-02T04:27:33.989Z,19.80
2023-02-02T04:30:00.861Z,25.42
2023-02-02T04:32:27.436Z,22.05
2023-02-02T04:34:53.984Z,20.48
2023-02-02T04:37:20.536Z,19.58
2023-02-02T04:39:48.877Z,19.23
2023-02-02T04:42:15.448Z,19.58
2023-02-02T04:44:44.025Z,19.13
2023-02-02T04:47:10.599Z,21.38
2023-02-02T04:49:37.875Z,19.83
2023-02-02T04:52:04.690Z,19.80
2023-02-02T04:54:31.379Z,20.55
2023-02-02T04:56:58.121Z,21.42
2023-02-02T04:59:24.961Z,21.35
2023-02-02T05:01:51.494Z,20.48
2023-02-02T05:04:18.101Z,20.17
2023-02-02T05:06:44.696Z,20.20
2023-02-02T05:09:11.440Z,19.65
2023-02-02T05:11:39.169Z,24.63
2023-02-02T05:14:05.960Z,19.90
2023-02-02T05:16:32.561Z,24.25
2023-02-02T05:18:59.559Z,19.90
2023-02-02T05:21:26.212Z,21.25
2023-02-02T05:23:52.797Z,21.20
2023-02-02T05:26:26.711Z,20.92
2023-02-02T05:28:53.805Z,19.88
2023-02-02T05:31:21.173Z,20.48
2023-02-02T05:33:47.848Z,20.17
2023-02-02T05:36:14.393Z,19.98
2023-02-02T05:38:40.974Z,20.13
2023-02-02T05:41:07.622Z,19.60
2023-02-02T05:43:34.547Z,20.00
2023-02-02T05:46:01.676Z,20.98
2023-02-02T05:48:28.580Z,20.08
2023-02-02T05:51:15.524Z,20.02
2023-02-02T05:53:42.156Z,20.23
2023-02-02T05:56:08.811Z,20.90
2023-02-02T05:58:35.403Z,19.52
2023-02-02T06:01:03.382Z,20.00
2023-02-02T06:03:29.984Z,19.88
2023-02-02T06:05:56.593Z,20.75
2023-02-02T06:08:23.189Z,19.60
2023-02-02T06:10:49.785Z,19.70
2023-02-02T06:13:16.395Z,20.50
2023-02-02T06:15:43.313Z,20.58
2023-02-02T06:18:10.403Z,20.88
2023-02-02T06:20:37.066Z,20.35
2023-02-02T06:23:04.114Z,20.05
2023-02-02T06:25:30.699Z,21.58
2023-02-02T06:27:58.294Z,19.67
2023-02-02T06:30:25.136Z,20.10
2023-02-02T06:32:51.725Z,19.95
2023-02-02T06:35:18.765Z,19.90
2023-02-02T06:37:45.485Z,24.80
2023-02-02T06:40:13.769Z,19.45
2023-02-02T06:42:40.985Z,19.83
2023-02-02T06:45:08.240Z,20.83
2023-02-02T06:47:35.092Z,20.63
2023-02-02T06:50:01.729Z,21.48
2023-02-02T06:52:28.508Z,20.63
2023-02-02T06:54:55.311Z,20.90
2023-02-02T06:57:22.021Z,21.30
2023-02-02T06:59:48.659Z,21.45
2023-02-02T07:02:15.410Z,21.00
2023-02-02T07:04:42.085Z,21.05
2023-02-02T07:07:08.623Z,20.85
2023-02-02T07:09:35.632Z,21.02
2023-02-02T07:12:02.232Z,21.13
2023-02-02T07:14:28.784Z,21.77
2023-02-02T07:16:55.326Z,21.42
2023-02-02T07:19:21.929Z,20.92
2023-02-02T07:21:48.573Z,21.20
2023-02-02T07:24:15.139Z,21.55
2023-02-02T07:26:41.759Z,21.60
2023-02-02T07:29:11.980Z,21.33
2023-02-02T07:31:38.554Z,20.60
2023-02-02T07:34:06.562Z,21.13
2023-02-02T07:36:33.392Z,22.30
2023-02-02T07:39:02.358Z,20.85
2023-02-02T07:41:28.920Z,21.83
2023-02-02T07:43:55.482Z,20.63
2023-02-02T07:46:22.389Z,20.50
2023-02-02T07:48:49.047Z,19.70
2023-02-02T07:51:18.192Z,20.17
2023-02-02T07:53:50.419Z,20.17
2023-02-02T07:56:22.741Z,20.00
2023-02-02T07:58:52.467Z,20.42
2023-02-02T08:01:20.683Z,19.88
2023-02-02T08:03:47.322Z,20.42
2023-02-02T08:06:28.846Z,18.83
2023-02-02T08:08:55.699Z,20.27
2023-02-02T08:11:23.584Z,19.08
2023-02-02T08:14:00.993Z,19.55
2023-02-02T08:16:29.652Z,20.50
2023-02-02T08:18:57.477Z,19.42
2023-02-02T08:21:24.873Z,20.33
2023-02-02T08:23:53.003Z,20.30
2023-02-02T08:26:22.131Z,19.50
2023-02-02T08:28:52.438Z,18.55
2023-02-02T08:31:22.300Z,20.17
2023-02-02T08:33:49.951Z,19.17
2023-02-02T08:36:21.837Z,23.98
2023-02-02T08:38:48.955Z,24.35
2023-02-02T08:41:24.505Z,24.17
2023-02-02T08:43:51.572Z,26.98
2023-02-02T08:46:20.512Z,27.10
2023-02-02T08:48:48.151Z,26.42
2023-02-02T08:51:18.460Z,29.25
2023-02-02T08:53:46.463Z,28.98
2023-02-02T08:56:15.287Z,28.90
2023-02-02T08:58:50.585Z,31.02
2023-02-02T09:01:20.517Z,28.25
2023-02-02T09:03:47.686Z,29.38
2023-02-02T09:06:17.459Z,30.23
2023-02-02T09:08:44.998Z,29.40
2023-02-02T09:11:14.702Z,30.30
2023-02-02T09:13:42.143Z,28.60
2023-02-02T09:16:11.210Z,29.20
2023-02-02T09:18:38.149Z,27.23
2023-02-02T09:21:07.559Z,27.20
2023-02-02T09:23:36.263Z,29.25
2023-02-02T09:26:29.284Z,22.48
2023-02-02T09:29:02.933Z,22.55
2023-02-02T09:31:33.425Z,20.75
2023-02-02T09:34:05.067Z,23.48
2023-02-02T09:36:32.140Z,20.75
2023-02-02T09:38:59.112Z,26.02
2023-02-02T09:41:37.566Z,20.30
2023-02-02T09:44:22.876Z,19.13
2023-02-02T09:46:58.563Z,19.48
2023-02-02T09:49:40.268Z,18.77
2023-02-02T09:52:14.823Z,22.55
2023-02-02T09:54:45.233Z,20.25
2023-02-02T09:57:41.664Z,21.40
2023-02-02T10:00:19.370Z,22.05
2023-02-02T10:02:49.983Z,21.52
2023-02-02T10:05:27.154Z,22.92
2023-02-02T10:08:01.628Z,23.75
2023-02-02T10:10:40.407Z,23.40
2023-02-02T10:13:16.159Z,25.25
2023-02-02T10:15:54.761Z,22.85
2023-02-02T10:18:33.331Z,23.55
2023-02-02T10:21:01.858Z,22.73
2023-02-02T10:23:35.812Z,21.58
2023-02-02T10:26:05.123Z,21.77
2023-02-02T10:28:42.315Z,22.45
2023-02-02T10:31:42.900Z,22.73
2023-02-02T10:34:55.556Z,22.98
2023-02-02T10:37:38.044Z,22.40
2023-02-02T10:40:22.884Z,20.42
2023-02-02T10:45:54.543Z,22.23
2023-02-02T10:48:30.402Z,21.42
2023-02-02T10:51:00.467Z,21.88
2023-02-02T10:53:29.944Z,22.85
2023-02-02T10:55:59.931Z,21.42
2023-02-02T10:58:32.281Z,21.48
2023-02-02T11:01:01.365Z,20.55
2023-02-02T11:03:31.140Z,17.92
2023-02-02T11:06:20.201Z,21.58
2023-02-02T11:08:59.549Z,18.40
2023-02-02T11:11:40.039Z,16.65
2023-02-02T11:14:09.836Z,17.83
2023-02-02T11:16:43.663Z,17.98
2023-02-02T11:21:56.472Z,18.25
2023-02-02T11:24:31.535Z,17.53
2023-02-02T11:27:24.044Z,20.25
2023-02-02T11:29:56.009Z,20.60
2023-02-02T11:32:28.014Z,21.92
2023-02-02T11:35:06.679Z,21.80
2023-02-02T11:37:37.996Z,22.50
2023-02-02T11:40:24.329Z,24.33
2023-02-02T11:42:52.929Z,21.75
2023-02-02T11:45:29.735Z,21.35
2023-02-02T11:48:02.820Z,22.02
2023-02-02T11:50:29.698Z,21.83
2023-02-02T11:52:56.681Z,21.95
2023-02-02T11:55:29.486Z,22.20
2023-02-02T11:58:42.356Z,22.27
2023-02-02T12:01:27.246Z,23.30
2023-02-02T12:03:58.751Z,24.50
2023-02-02T12:06:32.347Z,23.80
2023-02-02T12:09:03.826Z,24.13
2023-02-02T12:11:54.709Z,25.25
2023-02-02T12:14:29.394Z,25.05
2023-02-02T12:20:03.464Z,25.30
2023-02-02T12:22:54.736Z,25.23
2023-02-02T12:25:54.485Z,26.13
2023-02-02T12:28:49.068Z,24.45
2023-02-02T12:31:21.226Z,26.23
2023-02-02T12:34:26.087Z,25.92
2023-02-02T12:37:07.506Z,25.13
2023-02-02T12:39:34.672Z,24.73
2023-02-02T12:42:25.691Z,27.05
2023-02-02T12:45:00.029Z,25.60
2023-02-02T12:47:48.249Z,23.48
2023-02-02T12:50:15.576Z,22.55
2023-02-02T12:52:50.892Z,21.90
2023-02-02T12:55:36.105Z,22.50
2023-02-02T12:58:36.811Z,22.52
2023-02-02T13:01:38.833Z,21.15
2023-02-02T13:04:22.630Z,23.27
2023-02-02T13:06:56.432Z,23.25
2023-02-02T13:09:36.613Z,22.00
2023-02-02T13:12:09.272Z,20.80
2023-02-02T13:14:37.952Z,21.77
2023-02-02T13:17:15.884Z,21.85
2023-02-02T13:19:46.927Z,21.77
2023-02-02T13:22:37.682Z,21.25
2023-02-02T13:25:08.733Z,21.10
2023-02-02T13:27:36.660Z,21.95
2023-02-02T13:30:28.711Z,21.63
2023-02-02T13:32:59.940Z,22.08
2023-02-02T13:35:42.707Z,22.75
2023-02-02T13:38:22.898Z,21.90
2023-02-02T13:40:51.776Z,22.98
2023-02-02T13:44:01.104Z,22.98
2023-02-02T13:46:49.546Z,23.02
2023-02-02T13:49:25.983Z,23.35
2023-02-02T13:51:55.755Z,23.85
2023-02-02T13:54:34.199Z,24.30
2023-02-02T13:57:06.766Z,26.52
2023-02-02T13:59:54.762Z,24.35
2023-02-02T14:02:31.163Z,25.63
2023-02-02T14:05:00.956Z,23.27
2023-02-02T14:07:40.759Z,22.58
2023-02-02T14:10:28.161Z,22.65
2023-02-02T14:12:55.991Z,22.23
2023-02-02T14:15:44.431Z,22.30
2023-02-02T14:18:11.120Z,22.33
2023-02-02T14:20:47.184Z,22.25
2023-02-02T14:23:51.241Z,22.08
2023-02-02T14:26:45.638Z,23.20
2023-02-02T14:29:33.396Z,22.10
2023-02-02T14:32:06.746Z,22.05
2023-02-02T14:34:41.231Z,23.00
2023-02-02T14:37:23.016Z,24.08
2023-02-02T14:39:55.580Z,22.85
2023-02-02T14:42:59.081Z,23.73
2023-02-02T14:45:32.271Z,24.20
2023-02-02T14:48:20.585Z,23.42
2023-02-02T14:50:56.792Z,23.83
2023-02-02T14:53:33.804Z,23.70
2023-02-02T14:56:04.885Z,24.48
2023-02-02T14:58:37.375Z,24.67
2023-02-02T15:01:25.806Z,24.88
2023-02-02T15:04:01.091Z,24.33
2023-02-02T15:06:32.470Z,23.88
2023-02-02T15:09:22.482Z,24.95
2023-02-02T15:12:10.849Z,25.33
2023-02-02T15:15:11.490Z,25.67
2023-02-02T15:17:41.309Z,25.23
2023-02-02T15:20:26.664Z,25.63
2023-02-02T15:22:56.868Z,25.40
2023-02-02T15:25:45.866Z,25.85
2023-02-02T15:28:21.445Z,24.10
2023-02-02T15:30:54.457Z,23.00
2023-02-02T15:33:32.549Z,23.20
2023-02-02T15:36:10.206Z,22.20
2023-02-02T15:38:40.042Z,22.17
2023-02-02T15:41:34.190Z,22.30
2023-02-02T15:44:02.406Z,24.13
2023-02-02T15:46:34.364Z,23.77
2023-02-02T15:49:33.167Z,24.58
2023-02-02T15:52:10.114Z,25.27
2023-02-02T15:54:38.203Z,24.85
2023-02-02T15:57:27.485Z,25.95
2023-02-02T15:59:54.494Z,24.77
2023-02-02T16:02:40.982Z,23.27
2023-02-02T16:05:36.735Z,23.95
2023-02-02T16:08:08.349Z,22.50
2023-02-02T16:10:36.178Z,21.70
2023-02-02T16:13:03.517Z,21.42
2023-02-02T16:15:32.302Z,21.35
2023-02-02T16:18:05.514Z,22.90
2023-02-02T16:20:35.147Z,22.95
2023-02-02T16:23:04.862Z,24.33
2023-02-02T16:25:37.072Z,24.45
2023-02-02T16:28:04.455Z,27.42
2023-02-02T16:30:35.642Z,25.52
2023-02-02T16:33:34.133Z,23.73
2023-02-02T16:36:01.318Z,22.08
2023-02-02T16:38:33.977Z,24.20
2023-02-02T16:41:26.046Z,23.55
2023-02-02T16:43:52.747Z,26.77
2023-02-02T16:46:45.737Z,27.55
2023-02-02T16:49:23.048Z,26.63
2023-02-02T16:52:13.346Z,27.50
2023-02-02T16:54:45.410Z,29.50
2023-02-02T16:57:23.047Z,27.90
2023-02-02T16:59:56.440Z,27.33
2023-02-02T17:02:31.633Z,26.90
2023-02-02T17:05:19.584Z,25.98
2023-02-02T17:07:49.951Z,26.33
2023-02-02T17:10:16.481Z,33.35
2023-02-02T17:12:44.673Z,32.03
2023-02-02T17:15:17.328Z,26.80
2023-02-02T17:17:48.877Z,31.75
2023-02-02T17:20:17.112Z,31.30
2023-02-02T17:22:47.559Z,29.88
2023-02-02T17:25:16.987Z,31.90
2023-02-02T17:27:44.528Z,35.05
2023-02-02T17:30:16.075Z,34.58
2023-02-02T17:32:42.619Z,37.78
2023-02-02T17:35:17.020Z,35.78
2023-02-02T17:37:43.645Z,34.22
2023-02-02T17:40:18.371Z,39.53
2023-02-02T17:45:21.471Z,33.47
2023-02-02T17:47:48.102Z,35.95
2023-02-02T17:50:14.941Z,34.72
2023-02-02T17:52:41.497Z,41.00
2023-02-02T17:55:24.169Z,37.40
2023-02-02T17:57:52.268Z,36.03
2023-02-02T18:00:22.511Z,35.70
2023-02-02T18:02:51.276Z,32.80
2023-02-02T18:05:18.255Z,34.58
2023-02-02T18:07:45.044Z,35.83
2023-02-02T18:10:13.730Z,34.30
2023-02-02T18:12:42.292Z,34.25
2023-02-02T18:15:14.616Z,30.60
2023-02-02T18:17:41.680Z,30.35
2023-02-02T18:20:12.261Z,26.15
2023-02-02T18:22:38.833Z,25.20
2023-02-02T18:25:06.154Z,26.73
2023-02-02T18:27:32.729Z,25.48
2023-02-02T18:29:59.313Z,23.75
2023-02-02T18:32:26.331Z,23.45
2023-02-02T18:34:55.845Z,21.70
2023-02-02T18:37:24.113Z,21.90
2023-02-02T18:39:51.066Z,20.38
2023-02-02T18:42:17.647Z,20.45
2023-02-02T18:44:44.936Z,20.52
2023-02-02T18:47:11.474Z,20.88
2023-02-02T18:49:38.026Z,20.65
2023-02-02T18:52:04.703Z,20.98
2023-02-02T18:54:32.523Z,20.52
2023-02-02T18:56:59.079Z,22.00
2023-02-02T18:59:25.654Z,21.10
2023-02-02T19:01:52.323Z,22.25
2023-02-02T19:04:18.877Z,21.50
2023-02-02T19:07:03.694Z,20.77
2023-02-02T19:09:30.290Z,20.45
2023-02-02T19:11:57.196Z,21.02
2023-02-02T19:14:28.804Z,20.08
2023-02-02T19:16:59.916Z,20.52
2023-02-02T19:19:30.359Z,20.33
2023-02-02T19:21:58.611Z,21.70
2023-02-02T19:24:27.674Z,21.02
2023-02-02T19:26:54.419Z,20.50
2023-02-02T19:29:25.466Z,20.58
2023-02-02T19:32:09.428Z,21.08
2023-02-02T19:34:36.053Z,20.45
2023-02-02T19:37:22.219Z,20.02
2023-02-02T19:39:48.877Z,20.40
2023-02-02T19:42:15.629Z,20.02
2023-02-02T19:44:42.391Z,19.50
2023-02-02T19:47:21.400Z,22.60
2023-02-02T19:49:48.118Z,20.70
2023-02-02T19:52:22.145Z,21.08
2023-02-02T19:54:49.673Z,20.55
2023-02-02T19:57:41.921Z,20.65
2023-02-02T20:00:29.937Z,20.13
2023-02-02T20:03:09.670Z,21.17
2023-02-02T20:05:39.618Z,23.10
2023-02-02T20:08:31.499Z,20.75
2023-02-02T20:11:00.714Z,20.15
2023-02-02T20:13:45.551Z,21.95
2023-02-02T20:16:20.110Z,21.83
2023-02-02T20:18:52.061Z,20.00
2023-02-02T20:21:36.681Z,20.40
2023-02-02T20:24:04.020Z,20.92
2023-02-02T20:26:37.612Z,22.02
2023-02-02T20:29:25.634Z,21.02
2023-02-02T20:31:54.433Z,20.90
2023-02-02T20:34:23.950Z,20.27
2023-02-02T20:36:51.987Z,20.60
2023-02-02T20:39:26.967Z,21.88
2023-02-02T20:41:55.045Z,21.13
2023-02-02T20:44:21.645Z,20.90
2023-02-02T20:46:48.294Z,21.80
2023-02-02T20:49:15.165Z,21.27
2023-02-02T20:51:41.976Z,21.50
2023-02-02T20:54:10.238Z,22.23
2023-02-02T20:56:37.176Z,21.83
2023-02-02T20:59:06.979Z,23.35
2023-02-02T21:01:35.016Z,23.10
2023-02-02T21:04:01.662Z,22.38
2023-02-02T21:06:28.853Z,22.48
2023-02-02T21:08:55.480Z,22.67
2023-02-02T21:11:22.291Z,22.05
2023-02-02T21:13:50.189Z,23.08
2023-02-02T21:16:16.876Z,21.85
2023-02-02T21:18:47.267Z,22.05
2023-02-02T21:21:15.871Z,23.58
2023-02-02T21:23:47.396Z,22.63
2023-02-02T21:26:22.367Z,24.42
2023-02-02T21:28:49.831Z,22.63
2023-02-02T21:31:18.241Z,21.80
2023-02-02T21:33:46.063Z,25.10
2023-02-02T21:36:28.626Z,24.52
2023-02-02T21:39:19.280Z,26.33
2023-02-02T21:41:45.826Z,22.80
2023-02-02T21:44:17.536Z,24.05
2023-02-02T21:46:46.016Z,23.90
2023-02-02T21:49:37.112Z,24.45
2023-02-02T21:52:14.054Z,24.88
2023-02-02T21:54:41.014Z,23.73
2023-02-02T21:57:18.659Z,23.13
2023-02-02T21:59:46.825Z,23.13
2023-02-02T22:02:35.297Z,22.95
2023-02-02T22:05:02.452Z,24.08
2023-02-02T22:07:31.067Z,27.67
2023-02-02T22:09:57.636Z,25.98
2023-02-02T22:12:25.485Z,25.08
2023-02-02T22:14:56.985Z,23.10
2023-02-02T22:17:31.908Z,23.63
2023-02-02T22:20:32.006Z,22.75
2023-02-02T22:23:01.415Z,24.67
2023-02-02T22:25:33.629Z,24.70
2023-02-02T22:28:03.749Z,24.42
2023-02-02T22:30:39.915Z,22.98
2023-02-02T22:33:08.855Z,25.38
2023-02-02T22:35:35.988Z,23.60
2023-02-02T22:38:03.579Z,23.73
2023-02-02T22:40:30.812Z,24.92
2023-02-02T22:42:59.789Z,26.50
2023-02-02T22:45:26.728Z,23.50
2023-02-02T22:47:53.595Z,22.30
2023-02-02T22:50:40.056Z,22.95
2023-02-02T22:53:06.606Z,23.13
2023-02-02T22:55:33.997Z,23.02
2023-02-02T22:58:00.791Z,24.17
2023-02-02T23:00:29.554Z,23.80
2023-02-02T23:02:57.001Z,24.92
2023-02-02T23:05:25.497Z,23.80
2023-02-02T23:07:53.525Z,23.67
2023-02-02T23:10:23.027Z,21.50
2023-02-02T23:12:50.475Z,20.50
2023-02-02T23:15:19.218Z,21.42
2023-02-02T23:17:45.803Z,20.55
2023-02-02T23:20:13.939Z,20.00
2023-02-02T23:22:40.641Z,20.20
2023-02-02T23:25:07.370Z,21.73
2023-02-02T23:27:33.956Z,21.10
2023-02-02T23:30:00.520Z,20.42
2023-02-02T23:32:27.253Z,22.40
2023-02-02T23:34:53.813Z,20.25
2023-02-02T23:37:20.381Z,20.23
2023-02-02T23:39:46.979Z,20.48
2023-02-02T23:42:13.518Z,19.83
2023-02-02T23:44:40.070Z,20.58
2023-02-02T23:47:06.873Z,21.65
2023-02-02T23:49:34.258Z,20.42
2023-02-02T23:52:01.151Z,20.75
2023-02-02T23:54:28.951Z,20.13
2023-02-02T23:56:57.129Z,20.48
2023-02-02T23:59:23.693Z,20.10
